sensor_id;sensor_type;location;lat;lon;timestamp;temperature;humidity
5023;DHT22;2530;47.990;7.866;2024-02-15T13:35:15;15.30;99.90
5023;DHT22;2530;47.990;7.866;2024-02-15T13:37:46;15.30;99.90
5023;DHT22;2530;47.990;7.866;2024-02-15T13:40:13;15.30;99.90
5023;DHT22;2530;47.990;7.866;2024-02-15T13:42:45;15.70;99.90
5023;DHT22;2530;47.990;7.866;2024-02-15T13:45:31;15.50;99.90
5023;DHT22;2530;47.990;7.866;2024-02-15T13:48:03;15.80;99.90
5023;DHT22;2530;47.990;7.866;2024-02-15T13:50:31;15.50;99.90
5023;DHT22;2530;47.990;7.866;2024-02-15T13:52:57;15.60;99.90
5023;DHT22;2530;47.990;7.866;2024-02-15T13:55:26;15.80;99.90
5023;DHT22;2530;47.990;7.866;2024-02-15T13:57:52;15.70;99.90
5023;DHT22;2530;47.990;7.866;2024-02-15T14:00:18;15.70;99.90
5023;DHT22;2530;47.990;7.866;2024-02-15T14:02:48;15.60;99.90
5023;DHT22;2530;47.990;7.866;2024-02-15T14:05:14;15.70;99.90
5023;DHT22;2530;47.990;7.866;2024-02-15T14:07:39;15.70;99.90
5023;DHT22;2530;47.990;7.866;2024-02-15T14:10:06;15.50;99.90
5023;DHT22;2530;47.990;7.866;2024-02-15T14:12:32;15.30;99.90
5023;DHT22;2530;47.990;7.866;2024-02-15T14:14:58;15.30;99.90
5023;DHT22;2530;47.990;7.866;2024-02-15T14:17:23;15.40;99.90
5023;DHT22;2530;47.990;7.866;2024-02-15T14:19:49;15.50;99.90
5023;DHT22;2530;47.990;7.866;2024-02-15T14:22:15;15.50;99.90
5023;DHT22;2530;47.990;7.866;2024-02-15T14:24:43;15.60;99.90
5023;DHT22;2530;47.990;7.866;2024-02-15T14:27:09;15.70;99.90
5023;DHT22;2530;47.990;7.866;2024-02-15T14:29:36;15.60;99.90
5023;DHT22;2530;47.990;7.866;2024-02-15T14:32:06;15.50;99.90
5023;DHT22;2530;47.990;7.866;2024-02-15T14:34:50;15.60;99.90
5023;DHT22;2530;47.990;7.866;2024-02-15T14:37:16;15.60;99.90
5023;DHT22;2530;47.990;7.866;2024-02-15T14:39:42;15.70;99.90
5023;DHT22;2530;47.990;7.866;2024-02-15T14:42:08;15.70;99.90
5023;DHT22;2530;47.990;7.866;2024-02-15T14:44:33;15.70;99.90
5023;DHT22;2530;47.990;7.866;2024-02-15T14:46:59;15.50;99.90
5023;DHT22;2530;47.990;7.866;2024-02-15T14:49:25;15.70;99.90
5023;DHT22;2530;47.990;7.866;2024-02-15T14:51:52;15.70;99.90
5023;DHT22;2530;47.990;7.866;2024-02-15T14:54:17;15.70;99.90
5023;DHT22;2530;47.990;7.866;2024-02-15T14:56:44;15.70;99.90
5023;DHT22;2530;47.990;7.866;2024-02-15T14:59:10;15.30;99.90
5023;DHT22;2530;47.990;7.866;2024-02-15T15:01:37;15.40;99.90
5023;DHT22;2530;47.990;7.866;2024-02-15T15:04:02;15.50;99.90
5023;DHT22;2530;47.990;7.866;2024-02-15T15:06:31;15.50;99.90
5023;DHT22;2530;47.990;7.866;2024-02-15T15:09:15;15.40;99.90
5023;DHT22;2530;47.990;7.866;2024-02-15T15:11:59;15.30;99.90
5023;DHT22;2530;47.990;7.866;2024-02-15T15:14:43;15.20;99.90
5023;DHT22;2530;47.990;7.866;2024-02-15T15:17:10;15.20;99.90
5023;DHT22;2530;47.990;7.866;2024-02-15T15:19:40;15.00;99.90
5023;DHT22;2530;47.990;7.866;2024-02-15T15:22:05;14.90;99.90
5023;DHT22;2530;47.990;7.866;2024-02-15T15:24:32;14.90;99.90
5023;DHT22;2530;47.990;7.866;2024-02-15T15:26:58;14.80;99.90
5023;DHT22;2530;47.990;7.866;2024-02-15T15:29:24;14.80;99.90
5023;DHT22;2530;47.990;7.866;2024-02-15T15:31:50;16.20;99.90
5023;DHT22;2530;47.990;7.866;2024-02-15T15:34:17;14.70;99.90
5023;DHT22;2530;47.990;7.866;2024-02-15T15:36:45;14.80;99.90
5023;DHT22;2530;47.990;7.866;2024-02-15T15:39:12;14.70;99.90
5023;DHT22;2530;47.990;7.866;2024-02-15T15:41:37;14.60;99.90
5023;DHT22;2530;47.990;7.866;2024-02-15T15:44:03;14.50;99.90
5023;DHT22;2530;47.990;7.866;2024-02-15T15:46:30;14.50;99.90
5023;DHT22;2530;47.990;7.866;2024-02-15T15:48:55;14.50;99.90
5023;DHT22;2530;47.990;7.866;2024-02-15T15:51:21;14.50;99.90
5023;DHT22;2530;47.990;7.866;2024-02-15T15:53:46;14.40;99.90
5023;DHT22;2530;47.990;7.866;2024-02-15T15:56:14;14.50;99.90
5023;DHT22;2530;47.990;7.866;2024-02-15T15:58:42;14.50;99.90
5023;DHT22;2530;47.990;7.866;2024-02-15T16:01:10;14.40;99.90
5023;DHT22;2530;47.990;7.866;2024-02-15T16:03:36;14.30;99.90
5023;DHT22;2530;47.990;7.866;2024-02-15T16:06:01;14.30;99.90
5023;DHT22;2530;47.990;7.866;2024-02-15T16:08:28;14.20;99.90
5023;DHT22;2530;47.990;7.866;2024-02-15T16:10:54;14.20;99.90
5023;DHT22;2530;47.990;7.866;2024-02-15T16:13:22;14.10;99.90
5023;DHT22;2530;47.990;7.866;2024-02-15T16:15:51;14.10;99.90
5023;DHT22;2530;47.990;7.866;2024-02-15T16:18:18;14.00;99.90
5023;DHT22;2530;47.990;7.866;2024-02-15T16:20:44;14.10;99.90
5023;DHT22;2530;47.990;7.866;2024-02-15T16:23:10;14.10;99.90
5023;DHT22;2530;47.990;7.866;2024-02-15T16:25:36;14.50;99.90
5023;DHT22;2530;47.990;7.866;2024-02-15T16:28:02;14.00;99.90
5023;DHT22;2530;47.990;7.866;2024-02-15T16:30:31;13.90;99.90
5023;DHT22;2530;47.990;7.866;2024-02-15T16:32:58;13.80;99.90
5023;DHT22;2530;47.990;7.866;2024-02-15T16:35:23;13.70;99.90
5023;DHT22;2530;47.990;7.866;2024-02-15T16:37:49;13.60;99.90
5023;DHT22;2530;47.990;7.866;2024-02-15T16:40:15;13.50;99.90
5023;DHT22;2530;47.990;7.866;2024-02-15T16:42:43;13.50;99.90
5023;DHT22;2530;47.990;7.866;2024-02-15T16:45:10;13.50;99.90
5023;DHT22;2530;47.990;7.866;2024-02-15T16:47:37;13.30;99.90
5023;DHT22;2530;47.990;7.866;2024-02-15T16:50:02;13.20;99.90
5023;DHT22;2530;47.990;7.866;2024-02-15T16:52:33;13.10;99.90
5023;DHT22;2530;47.990;7.866;2024-02-15T16:54:59;13.30;99.90
5023;DHT22;2530;47.990;7.866;2024-02-15T16:57:24;13.20;99.90
5023;DHT22;2530;47.990;7.866;2024-02-15T16:59:50;13.00;99.90
5023;DHT22;2530;47.990;7.866;2024-02-15T17:02:16;13.00;99.90
5023;DHT22;2530;47.990;7.866;2024-02-15T17:04:41;13.00;99.90
5023;DHT22;2530;47.990;7.866;2024-02-15T17:07:07;13.00;99.90
5023;DHT22;2530;47.990;7.866;2024-02-15T17:09:32;13.00;99.90
5023;DHT22;2530;47.990;7.866;2024-02-15T17:11:58;12.90;99.90
5023;DHT22;2530;47.990;7.866;2024-02-15T17:14:24;12.80;99.90
5023;DHT22;2530;47.990;7.866;2024-02-15T17:16:49;12.80;99.90
5023;DHT22;2530;47.990;7.866;2024-02-15T17:19:16;12.70;99.90
5023;DHT22;2530;47.990;7.866;2024-02-15T17:21:41;12.70;99.90
5023;DHT22;2530;47.990;7.866;2024-02-15T17:24:10;12.60;99.90
5023;DHT22;2530;47.990;7.866;2024-02-15T17:26:43;12.60;99.90
5023;DHT22;2530;47.990;7.866;2024-02-15T17:29:10;12.60;99.90
5023;DHT22;2530;47.990;7.866;2024-02-15T17:31:36;12.50;99.90
5023;DHT22;2530;47.990;7.866;2024-02-15T17:34:02;12.40;99.90
5023;DHT22;2530;47.990;7.866;2024-02-15T17:36:30;12.30;99.90
5023;DHT22;2530;47.990;7.866;2024-02-15T17:38:56;12.20;99.90
5023;DHT22;2530;47.990;7.866;2024-02-15T17:41:21;12.10;99.90
5023;DHT22;2530;47.990;7.866;2024-02-15T17:43:47;12.10;99.90
5023;DHT22;2530;47.990;7.866;2024-02-15T17:46:13;12.00;99.90
5023;DHT22;2530;47.990;7.866;2024-02-15T17:48:38;11.90;99.90
5023;DHT22;2530;47.990;7.866;2024-02-15T17:51:05;11.90;99.90
5023;DHT22;2530;47.990;7.866;2024-02-15T17:53:30;11.80;99.90
5023;DHT22;2530;47.990;7.866;2024-02-15T17:55:56;11.80;99.90
5023;DHT22;2530;47.990;7.866;2024-02-15T17:58:24;11.70;99.90
5023;DHT22;2530;47.990;7.866;2024-02-15T18:00:50;11.70;99.90
5023;DHT22;2530;47.990;7.866;2024-02-15T18:03:17;11.80;99.90
5023;DHT22;2530;47.990;7.866;2024-02-15T18:05:43;11.80;99.90
5023;DHT22;2530;47.990;7.866;2024-02-15T18:08:15;11.70;99.90
5023;DHT22;2530;47.990;7.866;2024-02-15T18:10:42;11.70;99.90
5023;DHT22;2530;47.990;7.866;2024-02-15T18:13:08;11.70;99.90
5023;DHT22;2530;47.990;7.866;2024-02-15T18:15:34;11.70;99.90
5023;DHT22;2530;47.990;7.866;2024-02-15T18:18:05;11.70;99.90
5023;DHT22;2530;47.990;7.866;2024-02-15T18:20:31;11.60;99.90
5023;DHT22;2530;47.990;7.866;2024-02-15T18:22:56;11.50;99.90
5023;DHT22;2530;47.990;7.866;2024-02-15T18:25:22;11.50;99.90
5023;DHT22;2530;47.990;7.866;2024-02-15T18:27:50;11.40;99.90
5023;DHT22;2530;47.990;7.866;2024-02-15T18:30:16;11.50;99.90
5023;DHT22;2530;47.990;7.866;2024-02-15T18:32:45;11.50;99.90
5023;DHT22;2530;47.990;7.866;2024-02-15T18:35:11;11.50;99.90
5023;DHT22;2530;47.990;7.866;2024-02-15T18:37:37;11.60;99.90
5023;DHT22;2530;47.990;7.866;2024-02-15T18:40:04;11.60;99.90
5023;DHT22;2530;47.990;7.866;2024-02-15T18:42:35;11.60;99.90
5023;DHT22;2530;47.990;7.866;2024-02-15T18:45:05;11.60;99.90
5023;DHT22;2530;47.990;7.866;2024-02-15T18:47:31;11.60;99.90
5023;DHT22;2530;47.990;7.866;2024-02-15T18:49:57;11.50;99.90
5023;DHT22;2530;47.990;7.866;2024-02-15T18:52:25;11.50;99.90
5023;DHT22;2530;47.990;7.866;2024-02-15T18:54:52;11.40;99.90
5023;DHT22;2530;47.990;7.866;2024-02-15T18:57:25;11.40;99.90
5023;DHT22;2530;47.990;7.866;2024-02-15T18:59:51;11.50;99.90
5023;DHT22;2530;47.990;7.866;2024-02-15T19:02:17;11.50;99.90
5023;DHT22;2530;47.990;7.866;2024-02-15T19:04:48;11.40;99.90
5023;DHT22;2530;47.990;7.866;2024-02-15T19:07:14;11.40;99.90
5023;DHT22;2530;47.990;7.866;2024-02-15T19:09:40;11.40;99.90
5023;DHT22;2530;47.990;7.866;2024-02-15T19:12:06;11.40;99.90
5023;DHT22;2530;47.990;7.866;2024-02-15T19:14:36;11.40;99.90
5023;DHT22;2530;47.990;7.866;2024-02-15T19:17:02;11.40;99.90
5023;DHT22;2530;47.990;7.866;2024-02-15T19:19:27;11.40;99.90
5023;DHT22;2530;47.990;7.866;2024-02-15T19:21:53;11.30;99.90
5023;DHT22;2530;47.990;7.866;2024-02-15T19:24:19;11.30;99.90
5023;DHT22;2530;47.990;7.866;2024-02-15T19:26:45;11.30;99.90
5023;DHT22;2530;47.990;7.866;2024-02-15T19:29:11;11.30;99.90
5023;DHT22;2530;47.990;7.866;2024-02-15T19:31:37;11.30;99.90
5023;DHT22;2530;47.990;7.866;2024-02-15T19:34:07;11.30;99.90
5023;DHT22;2530;47.990;7.866;2024-02-15T19:36:33;11.20;99.90
5023;DHT22;2530;47.990;7.866;2024-02-15T19:39:03;11.20;99.90
5023;DHT22;2530;47.990;7.866;2024-02-15T19:41:38;11.30;99.90
5023;DHT22;2530;47.990;7.866;2024-02-15T19:44:05;11.20;99.90
5023;DHT22;2530;47.990;7.866;2024-02-15T19:46:31;11.10;99.90
5023;DHT22;2530;47.990;7.866;2024-02-15T19:48:57;11.00;99.90
5023;DHT22;2530;47.990;7.866;2024-02-15T19:51:22;11.00;99.90
5023;DHT22;2530;47.990;7.866;2024-02-15T19:53:49;11.00;99.90
5023;DHT22;2530;47.990;7.866;2024-02-15T19:56:15;10.90;99.90
5023;DHT22;2530;47.990;7.866;2024-02-15T19:58:41;10.70;99.90
5023;DHT22;2530;47.990;7.866;2024-02-15T20:01:07;10.70;99.90
5023;DHT22;2530;47.990;7.866;2024-02-15T20:03:32;10.70;99.90
5023;DHT22;2530;47.990;7.866;2024-02-15T20:05:58;10.70;99.90
5023;DHT22;2530;47.990;7.866;2024-02-15T20:08:26;10.70;99.90
5023;DHT22;2530;47.990;7.866;2024-02-15T20:10:52;10.60;99.90
5023;DHT22;2530;47.990;7.866;2024-02-15T20:13:25;10.50;99.90
5023;DHT22;2530;47.990;7.866;2024-02-15T20:15:50;10.50;99.90
5023;DHT22;2530;47.990;7.866;2024-02-15T20:18:19;10.40;99.90
5023;DHT22;2530;47.990;7.866;2024-02-15T20:20:46;10.40;99.90
5023;DHT22;2530;47.990;7.866;2024-02-15T20:23:14;10.40;99.90
5023;DHT22;2530;47.990;7.866;2024-02-15T20:25:40;10.30;99.90
5023;DHT22;2530;47.990;7.866;2024-02-15T20:28:07;10.30;99.90
5023;DHT22;2530;47.990;7.866;2024-02-15T20:30:32;10.30;99.90
5023;DHT22;2530;47.990;7.866;2024-02-15T20:32:58;10.40;99.90
5023;DHT22;2530;47.990;7.866;2024-02-15T20:35:24;10.40;99.90
5023;DHT22;2530;47.990;7.866;2024-02-15T20:37:52;10.30;99.90
5023;DHT22;2530;47.990;7.866;2024-02-15T20:40:17;10.40;99.90
5023;DHT22;2530;47.990;7.866;2024-02-15T20:42:43;10.40;99.90
5023;DHT22;2530;47.990;7.866;2024-02-15T20:45:09;10.30;99.90
5023;DHT22;2530;47.990;7.866;2024-02-15T20:47:35;10.30;99.90
5023;DHT22;2530;47.990;7.866;2024-02-15T20:50:01;10.30;99.90
5023;DHT22;2530;47.990;7.866;2024-02-15T20:52:27;10.30;99.90
5023;DHT22;2530;47.990;7.866;2024-02-15T20:54:53;10.30;99.90
5023;DHT22;2530;47.990;7.866;2024-02-15T20:57:18;10.20;99.90
5023;DHT22;2530;47.990;7.866;2024-02-15T20:59:44;10.20;99.90
5023;DHT22;2530;47.990;7.866;2024-02-15T21:02:10;10.20;99.90
5023;DHT22;2530;47.990;7.866;2024-02-15T21:04:35;10.20;99.90
5023;DHT22;2530;47.990;7.866;2024-02-15T21:07:01;10.20;99.90
5023;DHT22;2530;47.990;7.866;2024-02-15T21:09:27;10.30;99.90
5023;DHT22;2530;47.990;7.866;2024-02-15T21:11:52;10.40;99.90
5023;DHT22;2530;47.990;7.866;2024-02-15T21:14:20;10.40;99.90
5023;DHT22;2530;47.990;7.866;2024-02-15T21:16:46;10.40;99.90
5023;DHT22;2530;47.990;7.866;2024-02-15T21:19:12;10.40;99.90
5023;DHT22;2530;47.990;7.866;2024-02-15T21:21:38;10.40;99.90
5023;DHT22;2530;47.990;7.866;2024-02-15T21:24:04;10.50;99.90
5023;DHT22;2530;47.990;7.866;2024-02-15T21:26:30;10.40;99.90
5023;DHT22;2530;47.990;7.866;2024-02-15T21:28:55;10.40;99.90
5023;DHT22;2530;47.990;7.866;2024-02-15T21:31:21;10.40;99.90
5023;DHT22;2530;47.990;7.866;2024-02-15T21:33:50;10.30;99.90
5023;DHT22;2530;47.990;7.866;2024-02-15T21:36:18;10.20;99.90
5023;DHT22;2530;47.990;7.866;2024-02-15T21:38:44;10.20;99.90
5023;DHT22;2530;47.990;7.866;2024-02-15T21:41:10;10.20;99.90
5023;DHT22;2530;47.990;7.866;2024-02-15T21:43:36;10.20;99.90
5023;DHT22;2530;47.990;7.866;2024-02-15T21:46:03;10.10;99.90
5023;DHT22;2530;47.990;7.866;2024-02-15T21:48:32;9.90;99.90
5023;DHT22;2530;47.990;7.866;2024-02-15T21:50:58;10.10;99.90
5023;DHT22;2530;47.990;7.866;2024-02-15T21:53:23;10.10;99.90
5023;DHT22;2530;47.990;7.866;2024-02-15T21:55:49;10.00;99.90
5023;DHT22;2530;47.990;7.866;2024-02-15T21:58:15;10.10;99.90
5023;DHT22;2530;47.990;7.866;2024-02-15T22:00:40;10.10;99.90
5023;DHT22;2530;47.990;7.866;2024-02-15T22:03:06;10.20;99.90
5023;DHT22;2530;47.990;7.866;2024-02-15T22:05:37;10.20;99.90
5023;DHT22;2530;47.990;7.866;2024-02-15T22:08:03;10.20;99.90
5023;DHT22;2530;47.990;7.866;2024-02-15T22:10:28;9.90;99.90
5023;DHT22;2530;47.990;7.866;2024-02-15T22:12:54;10.10;99.90
5023;DHT22;2530;47.990;7.866;2024-02-15T22:15:19;10.20;99.90
5023;DHT22;2530;47.990;7.866;2024-02-15T22:17:45;10.30;99.90
5023;DHT22;2530;47.990;7.866;2024-02-15T22:20:10;10.30;99.90
5023;DHT22;2530;47.990;7.866;2024-02-15T22:22:37;10.30;99.90
5023;DHT22;2530;47.990;7.866;2024-02-15T22:25:05;10.30;99.90
5023;DHT22;2530;47.990;7.866;2024-02-15T22:27:33;10.30;99.90
5023;DHT22;2530;47.990;7.866;2024-02-15T22:29:59;10.30;99.90
5023;DHT22;2530;47.990;7.866;2024-02-15T22:32:24;10.40;99.90
5023;DHT22;2530;47.990;7.866;2024-02-15T22:34:51;10.40;99.90
5023;DHT22;2530;47.990;7.866;2024-02-15T22:37:17;10.40;99.90
5023;DHT22;2530;47.990;7.866;2024-02-15T22:39:43;10.40;99.90
5023;DHT22;2530;47.990;7.866;2024-02-15T22:42:10;10.40;99.90
5023;DHT22;2530;47.990;7.866;2024-02-15T22:44:36;10.40;99.90
5023;DHT22;2530;47.990;7.866;2024-02-15T22:47:02;10.40;99.90
5023;DHT22;2530;47.990;7.866;2024-02-15T22:49:27;10.40;99.90
5023;DHT22;2530;47.990;7.866;2024-02-15T22:51:53;10.30;99.90
5023;DHT22;2530;47.990;7.866;2024-02-15T22:54:19;10.30;99.90
5023;DHT22;2530;47.990;7.866;2024-02-15T22:56:45;10.30;99.90
5023;DHT22;2530;47.990;7.866;2024-02-15T22:59:11;10.30;99.90
5023;DHT22;2530;47.990;7.866;2024-02-15T23:01:37;10.20;99.90
5023;DHT22;2530;47.990;7.866;2024-02-15T23:04:05;10.20;99.90
5023;DHT22;2530;47.990;7.866;2024-02-15T23:06:32;10.10;99.90
5023;DHT22;2530;47.990;7.866;2024-02-15T23:08:59;10.10;99.90
5023;DHT22;2530;47.990;7.866;2024-02-15T23:11:24;10.10;99.90
5023;DHT22;2530;47.990;7.866;2024-02-15T23:13:50;10.10;99.90
5023;DHT22;2530;47.990;7.866;2024-02-15T23:16:16;10.10;99.90
5023;DHT22;2530;47.990;7.866;2024-02-15T23:18:41;10.00;99.90
5023;DHT22;2530;47.990;7.866;2024-02-15T23:21:07;10.10;99.90
5023;DHT22;2530;47.990;7.866;2024-02-15T23:23:33;10.00;99.90
5023;DHT22;2530;47.990;7.866;2024-02-15T23:25:59;10.10;99.90
5023;DHT22;2530;47.990;7.866;2024-02-15T23:28:26;10.00;99.90
5023;DHT22;2530;47.990;7.866;2024-02-15T23:30:52;10.00;99.90
5023;DHT22;2530;47.990;7.866;2024-02-15T23:33:17;10.10;99.90
5023;DHT22;2530;47.990;7.866;2024-02-15T23:35:47;10.10;99.90
5023;DHT22;2530;47.990;7.866;2024-02-15T23:38:32;10.20;99.90
5023;DHT22;2530;47.990;7.866;2024-02-15T23:41:17;10.20;99.90
5023;DHT22;2530;47.990;7.866;2024-02-15T23:43:43;10.20;99.90
5023;DHT22;2530;47.990;7.866;2024-02-15T23:46:09;10.30;99.90
5023;DHT22;2530;47.990;7.866;2024-02-15T23:48:36;10.30;99.90
5023;DHT22;2530;47.990;7.866;2024-02-15T23:51:02;10.20;99.90
5023;DHT22;2530;47.990;7.866;2024-02-15T23:53:27;10.30;99.90
5023;DHT22;2530;47.990;7.866;2024-02-15T23:55:53;10.30;99.90
5023;DHT22;2530;47.990;7.866;2024-02-15T23:58:18;10.20;99.90
